createdAt,value
2018-12-07T00:00:18.660Z,2.23
2018-12-07T00:02:46.224Z,2.40
2018-12-07T00:05:13.741Z,2.40
2018-12-07T00:07:41.240Z,3.23
2018-12-07T00:10:08.834Z,3.57
2018-12-07T00:12:36.346Z,2.93
2018-12-07T00:15:05.332Z,3.27
2018-12-07T00:17:32.828Z,2.30
2018-12-07T00:20:00.344Z,2.50
2018-12-07T00:22:27.831Z,2.23
2018-12-07T00:24:55.354Z,2.80
2018-12-07T00:27:22.866Z,1.80
2018-12-07T00:29:50.408Z,1.83
2018-12-07T00:32:17.918Z,1.63
2018-12-07T00:34:45.452Z,1.60
2018-12-07T00:37:12.952Z,1.47
2018-12-07T00:39:40.463Z,1.40
2018-12-07T00:42:07.960Z,1.63
2018-12-07T00:44:35.504Z,1.20
2018-12-07T00:47:03.004Z,1.00
2018-12-07T00:49:30.519Z,1.00
2018-12-07T00:51:58.080Z,0.93
2018-12-07T00:54:25.569Z,0.80
2018-12-07T00:56:53.108Z,1.20
2018-12-07T00:59:20.618Z,1.00
2018-12-07T01:01:48.139Z,1.10
2018-12-07T01:04:15.660Z,1.43
2018-12-07T01:06:43.193Z,1.00
2018-12-07T01:09:10.709Z,0.90
2018-12-07T01:11:38.240Z,1.10
2018-12-07T01:14:05.830Z,0.90
2018-12-07T01:16:33.369Z,1.10
2018-12-07T01:19:00.872Z,1.10
2018-12-07T01:24:39.248Z,0.90
2018-12-07T01:27:06.769Z,1.10
2018-12-07T01:29:34.277Z,1.30
2018-12-07T01:32:01.813Z,0.90
2018-12-07T01:37:27.593Z,1.03
2018-12-07T01:39:55.109Z,1.00
2018-12-07T01:42:22.645Z,0.90
2018-12-07T01:44:50.140Z,0.83
2018-12-07T01:47:17.729Z,0.80
2018-12-07T01:49:45.223Z,1.00
2018-12-07T01:52:12.744Z,1.20
2018-12-07T01:54:40.329Z,1.30
2018-12-07T01:57:07.847Z,1.13
2018-12-07T01:59:35.339Z,1.00
2018-12-07T02:02:02.899Z,1.27
2018-12-07T02:04:30.391Z,1.10
2018-12-07T02:06:58.816Z,0.80
2018-12-07T02:09:26.437Z,0.80
2018-12-07T02:11:53.956Z,0.80
2018-12-07T02:14:21.468Z,0.70
2018-12-07T02:16:49.004Z,0.80
2018-12-07T02:19:16.507Z,0.50
2018-12-07T02:21:44.024Z,0.50
2018-12-07T02:24:11.524Z,0.50
2018-12-07T02:26:39.043Z,0.60
2018-12-07T02:29:06.538Z,0.50
2018-12-07T02:31:34.055Z,0.73
2018-12-07T02:34:01.568Z,0.50
2018-12-07T02:36:29.093Z,0.40
2018-12-07T02:38:56.590Z,0.50
2018-12-07T02:41:24.122Z,0.60
2018-12-07T02:43:51.881Z,0.60
2018-12-07T02:46:19.422Z,0.47
2018-12-07T02:48:46.927Z,0.57
2018-12-07T02:51:14.468Z,0.60
2018-12-07T02:53:41.973Z,0.50
2018-12-07T02:56:09.513Z,0.40
2018-12-07T02:58:37.032Z,0.50
2018-12-07T03:01:04.564Z,0.97
2018-12-07T03:03:32.077Z,0.60
2018-12-07T03:05:59.592Z,0.60
2018-12-07T03:08:27.157Z,1.13
2018-12-07T03:10:54.670Z,0.60
2018-12-07T03:13:22.169Z,0.53
2018-12-07T03:15:49.696Z,0.50
2018-12-07T03:18:25.137Z,0.60
2018-12-07T03:20:52.740Z,0.70
2018-12-07T03:23:20.252Z,0.70
2018-12-07T03:25:47.743Z,0.70
2018-12-07T03:28:15.262Z,0.57
2018-12-07T03:30:42.775Z,1.00
2018-12-07T03:33:10.319Z,1.30
2018-12-07T03:35:37.922Z,0.90
2018-12-07T03:38:05.567Z,1.00
2018-12-07T03:40:33.072Z,1.20
2018-12-07T03:43:00.591Z,0.97
2018-12-07T03:45:28.089Z,1.10
2018-12-07T03:47:55.684Z,1.10
2018-12-07T03:50:23.190Z,1.00
2018-12-07T03:52:50.710Z,0.90
2018-12-07T03:55:18.234Z,1.30
2018-12-07T03:57:45.760Z,1.33
2018-12-07T04:00:13.323Z,0.80
2018-12-07T04:02:40.845Z,0.77
2018-12-07T04:05:08.476Z,0.53
2018-12-07T04:07:35.996Z,0.90
2018-12-07T04:10:04.548Z,0.67
2018-12-07T04:12:32.089Z,0.93
2018-12-07T04:20:45.067Z,1.10
2018-12-07T04:23:12.605Z,1.20
2018-12-07T04:28:32.741Z,1.53
2018-12-07T04:31:00.258Z,1.67
2018-12-07T04:33:27.794Z,2.20
2018-12-07T04:35:55.314Z,2.13
2018-12-07T04:38:22.952Z,2.60
2018-12-07T04:40:50.474Z,2.53
2018-12-07T04:43:18.004Z,2.63
2018-12-07T04:45:45.501Z,2.83
2018-12-07T04:48:13.044Z,2.67
2018-12-07T04:50:40.570Z,3.10
2018-12-07T04:53:08.100Z,3.43
2018-12-07T04:55:35.609Z,2.83
2018-12-07T04:58:03.196Z,2.50
2018-12-07T05:00:30.724Z,2.70
2018-12-07T05:02:58.321Z,2.70
2018-12-07T05:05:25.912Z,2.80
2018-12-07T05:07:53.432Z,2.37
2018-12-07T05:10:20.920Z,2.63
2018-12-07T05:12:48.497Z,1.83
2018-12-07T05:15:16.001Z,1.87
2018-12-07T05:17:43.545Z,2.07
2018-12-07T05:20:11.065Z,2.20
2018-12-07T05:25:36.432Z,1.87
2018-12-07T05:28:03.977Z,1.77
2018-12-07T05:30:31.497Z,1.60
2018-12-07T05:32:59.087Z,2.23
2018-12-07T05:35:26.615Z,1.87
2018-12-07T05:37:54.136Z,1.83
2018-12-07T05:40:21.644Z,1.77
2018-12-07T05:42:49.184Z,1.87
2018-12-07T05:45:16.689Z,1.80
2018-12-07T05:47:44.208Z,1.87
2018-12-07T05:50:11.724Z,1.97
2018-12-07T05:52:39.264Z,2.10
2018-12-07T05:55:06.842Z,2.20
2018-12-07T05:57:34.430Z,2.27
2018-12-07T06:00:02.237Z,2.20
2018-12-07T06:02:29.751Z,2.43
2018-12-07T06:07:55.019Z,2.00
2018-12-07T06:10:22.962Z,1.93
2018-12-07T06:12:50.506Z,2.10
2018-12-07T06:15:18.020Z,2.37
2018-12-07T06:17:45.543Z,2.50
2018-12-07T06:20:13.067Z,2.57
2018-12-07T06:22:40.583Z,3.30
2018-12-07T06:25:08.112Z,3.23
2018-12-07T06:27:35.616Z,3.00
2018-12-07T06:30:03.590Z,2.63
2018-12-07T06:32:36.157Z,2.50
2018-12-07T06:35:00.629Z,2.53
2018-12-07T06:37:28.161Z,2.20
2018-12-07T06:39:55.693Z,2.80
2018-12-07T06:42:23.200Z,2.50
2018-12-07T06:44:50.738Z,3.13
2018-12-07T06:47:18.244Z,2.60
2018-12-07T06:49:45.764Z,2.83
2018-12-07T06:52:13.285Z,2.30
2018-12-07T06:54:40.805Z,2.70
2018-12-07T06:57:08.348Z,3.00
2018-12-07T06:59:35.891Z,2.13
2018-12-07T07:04:55.986Z,2.40
2018-12-07T07:07:23.511Z,3.57
2018-12-07T07:09:51.040Z,2.43
2018-12-07T07:12:18.541Z,2.53
2018-12-07T07:14:46.061Z,2.70
2018-12-07T07:17:13.594Z,2.73
2018-12-07T07:19:41.128Z,2.23
2018-12-07T07:22:08.623Z,2.20
2018-12-07T07:24:36.154Z,2.60
2018-12-07T07:27:03.664Z,2.67
2018-12-07T07:29:39.097Z,2.50
2018-12-07T07:32:12.744Z,1.60
2018-12-07T07:34:46.274Z,2.07
2018-12-07T07:37:13.776Z,2.43
2018-12-07T07:39:41.363Z,1.80
2018-12-07T07:42:08.863Z,3.13
2018-12-07T07:44:36.481Z,2.50
2018-12-07T07:47:10.237Z,2.33
2018-12-07T07:49:37.756Z,2.70
2018-12-07T07:52:05.260Z,2.10
2018-12-07T07:54:45.411Z,3.00
2018-12-07T07:57:36.234Z,2.20
2018-12-07T08:00:05.320Z,2.40
2018-12-07T08:02:32.816Z,2.47
2018-12-07T08:05:00.346Z,2.37
2018-12-07T08:07:27.847Z,2.57
2018-12-07T08:09:55.371Z,2.23
2018-12-07T08:12:36.068Z,2.63
2018-12-07T08:15:04.640Z,2.10
2018-12-07T08:17:32.142Z,2.30
2018-12-07T08:19:59.673Z,2.23
2018-12-07T08:22:27.184Z,2.40
2018-12-07T08:24:54.696Z,2.90
2018-12-07T08:27:22.210Z,2.80
2018-12-07T08:29:49.738Z,2.87
2018-12-07T08:32:17.228Z,2.90
2018-12-07T08:34:44.774Z,2.90
2018-12-07T08:37:12.274Z,3.17
2018-12-07T08:39:43.677Z,3.13
2018-12-07T08:42:20.930Z,3.20
2018-12-07T08:44:54.495Z,2.77
2018-12-07T08:47:28.208Z,3.33
2018-12-07T08:53:16.813Z,3.27
2018-12-07T08:58:47.797Z,3.13
2018-12-07T09:01:15.334Z,3.33
2018-12-07T09:03:42.854Z,3.53
2018-12-07T09:06:10.391Z,3.90
2018-12-07T09:11:54.809Z,3.13
2018-12-07T09:14:41.115Z,2.30
2018-12-07T09:17:14.633Z,3.10
2018-12-07T09:19:42.156Z,2.83
2018-12-07T09:22:11.173Z,2.00
2018-12-07T09:24:44.753Z,2.67
2018-12-07T09:27:18.692Z,3.13
2018-12-07T09:32:47.771Z,2.67
2018-12-07T09:35:15.305Z,2.30
2018-12-07T09:37:42.813Z,2.90
2018-12-07T09:40:10.333Z,2.30
2018-12-07T09:42:37.832Z,2.03
2018-12-07T09:45:06.511Z,2.17
2018-12-07T09:47:34.035Z,2.53
2018-12-07T09:50:01.562Z,2.33
2018-12-07T09:52:29.145Z,2.20
2018-12-07T09:54:56.727Z,2.47
2018-12-07T09:57:24.237Z,2.83
2018-12-07T09:59:51.782Z,2.80
2018-12-07T10:02:19.283Z,2.20
2018-12-07T10:04:51.721Z,2.23
2018-12-07T10:07:25.030Z,2.20
2018-12-07T10:09:59.088Z,2.03
2018-12-07T10:12:30.438Z,2.03
2018-12-07T10:15:04.432Z,2.10
2018-12-07T10:17:35.063Z,2.10
2018-12-07T10:20:09.109Z,2.00
2018-12-07T10:22:43.692Z,1.90
2018-12-07T10:25:14.972Z,1.80
2018-12-07T10:27:55.426Z,2.20
2018-12-07T10:30:26.073Z,2.60
2018-12-07T10:32:59.917Z,1.87
2018-12-07T10:35:27.441Z,1.87
2018-12-07T10:37:54.950Z,1.50
2018-12-07T10:40:22.487Z,2.00
2018-12-07T10:42:49.994Z,2.07
2018-12-07T10:45:17.524Z,1.43
2018-12-07T10:47:50.304Z,2.00
2018-12-07T10:50:14.575Z,1.30
2018-12-07T10:52:42.089Z,2.10
2018-12-07T10:55:09.619Z,1.80
2018-12-07T10:57:37.141Z,1.60
2018-12-07T11:00:08.778Z,1.97
2018-12-07T11:02:41.968Z,1.97
2018-12-07T11:05:15.240Z,1.73
2018-12-07T11:07:48.384Z,2.03
2018-12-07T11:10:21.658Z,2.10
2018-12-07T11:16:15.979Z,2.07
2018-12-07T11:21:59.407Z,1.67
2018-12-07T11:24:39.359Z,1.50
2018-12-07T11:30:39.013Z,1.40
2018-12-07T11:33:20.057Z,1.27
2018-12-07T11:35:51.232Z,1.40
2018-12-07T11:41:20.877Z,1.63
2018-12-07T11:43:48.385Z,1.17
2018-12-07T11:46:15.925Z,1.53
2018-12-07T11:48:43.437Z,1.63
2018-12-07T11:51:11.052Z,1.33
2018-12-07T11:53:38.593Z,2.17
2018-12-07T11:56:06.091Z,1.33
2018-12-07T11:58:33.728Z,1.30
2018-12-07T12:01:01.239Z,1.20
2018-12-07T12:03:28.781Z,1.70
2018-12-07T12:05:56.301Z,1.67
2018-12-07T12:08:23.838Z,1.60
2018-12-07T12:10:51.345Z,1.57
2018-12-07T12:13:18.942Z,1.30
2018-12-07T12:15:46.472Z,1.40
2018-12-07T12:18:14.026Z,1.40
2018-12-07T12:20:41.555Z,1.00
2018-12-07T12:23:09.109Z,1.23
2018-12-07T12:25:36.623Z,1.30
2018-12-07T12:28:04.162Z,1.33
2018-12-07T12:30:31.695Z,1.47
2018-12-07T12:32:59.236Z,1.10
2018-12-07T12:35:26.737Z,1.57
2018-12-07T12:37:54.264Z,0.90
2018-12-07T12:40:21.773Z,0.90
2018-12-07T12:42:49.273Z,0.90
2018-12-07T12:45:16.796Z,1.00
2018-12-07T12:47:50.936Z,1.00
2018-12-07T12:50:27.736Z,1.37
2018-12-07T12:53:01.092Z,0.93
2018-12-07T12:55:45.657Z,0.90
2018-12-07T12:58:16.212Z,1.20
2018-12-07T13:00:50.020Z,1.37
2018-12-07T13:03:25.192Z,0.80
2018-12-07T13:06:02.493Z,0.83
2018-12-07T13:08:35.719Z,0.87
2018-12-07T13:11:18.320Z,0.90
2018-12-07T13:13:51.720Z,0.90
2018-12-07T13:16:25.592Z,1.27
2018-12-07T13:19:10.185Z,0.97
2018-12-07T13:21:43.816Z,2.00
2018-12-07T13:27:20.089Z,1.30
2018-12-07T13:29:54.118Z,1.47
2018-12-07T13:32:27.707Z,1.80
2018-12-07T13:35:01.465Z,1.83
2018-12-07T13:37:39.304Z,2.60
2018-12-07T13:40:08.985Z,3.40
2018-12-07T13:42:56.405Z,2.00
2018-12-07T13:45:24.056Z,1.60
2018-12-07T13:47:51.893Z,1.50
2018-12-07T13:50:25.375Z,1.80
2018-12-07T13:52:59.621Z,1.40
2018-12-07T13:55:36.448Z,1.40
2018-12-07T14:01:13.588Z,1.17
2018-12-07T14:03:41.175Z,0.83
2018-12-07T14:06:08.804Z,1.27
2018-12-07T14:08:36.508Z,1.17
2018-12-07T14:11:04.259Z,0.97
2018-12-07T14:13:31.896Z,0.80
2018-12-07T14:15:59.652Z,0.90
2018-12-07T14:18:27.398Z,0.80
2018-12-07T14:20:55.052Z,0.70
2018-12-07T14:23:22.693Z,0.80
2018-12-07T14:25:50.305Z,1.40
2018-12-07T14:28:17.969Z,0.90
2018-12-07T14:30:45.611Z,0.70
2018-12-07T14:33:13.183Z,0.73
2018-12-07T14:35:40.883Z,0.60
2018-12-07T14:38:08.438Z,0.67
2018-12-07T14:40:36.165Z,0.50
2018-12-07T14:43:03.976Z,0.63
2018-12-07T14:45:31.559Z,0.50
2018-12-07T14:47:59.376Z,0.73
2018-12-07T14:50:27.155Z,0.50
2018-12-07T14:52:54.743Z,0.40
2018-12-07T14:55:22.404Z,0.60
2018-12-07T14:57:50.131Z,0.37
2018-12-07T15:00:17.784Z,0.30
2018-12-07T15:02:45.368Z,0.50
2018-12-07T15:05:13.224Z,0.50
2018-12-07T15:07:40.912Z,0.70
2018-12-07T15:10:08.684Z,0.40
2018-12-07T15:12:36.426Z,0.40
2018-12-07T15:15:05.353Z,0.70
2018-12-07T15:17:33.020Z,0.50
2018-12-07T15:20:00.699Z,0.60
2018-12-07T15:22:28.520Z,0.60
2018-12-07T15:24:56.161Z,0.60
2018-12-07T15:27:23.833Z,0.67
2018-12-07T15:29:51.500Z,0.60
2018-12-07T15:32:19.174Z,0.73
2018-12-07T15:34:47.020Z,0.60
2018-12-07T15:37:14.996Z,1.07
2018-12-07T15:39:42.652Z,0.60
2018-12-07T15:42:17.008Z,0.60
2018-12-07T15:44:51.613Z,0.57
2018-12-07T15:47:25.776Z,0.90
2018-12-07T15:50:09.669Z,0.60
2018-12-07T15:52:40.341Z,0.90
2018-12-07T15:55:22.752Z,1.10
2018-12-07T15:57:57.654Z,0.60
2018-12-07T16:00:35.291Z,0.70
2018-12-07T16:03:06.692Z,0.67
2018-12-07T16:05:44.759Z,0.50
2018-12-07T16:11:22.129Z,0.50
2018-12-07T16:14:06.589Z,0.70
2018-12-07T16:16:42.325Z,0.43
2018-12-07T16:19:28.696Z,1.00
2018-12-07T16:22:09.459Z,0.97
2018-12-07T16:24:45.311Z,0.60
2018-12-07T16:27:13.128Z,0.70
2018-12-07T16:29:46.933Z,0.90
2018-12-07T16:32:31.655Z,0.80
2018-12-07T16:35:02.251Z,0.80
2018-12-07T16:37:33.240Z,1.13
2018-12-07T16:40:08.716Z,0.90
2018-12-07T16:42:51.717Z,0.80
2018-12-07T16:45:19.438Z,1.03
2018-12-07T16:47:47.238Z,0.93
2018-12-07T16:50:15.031Z,0.63
2018-12-07T16:52:42.608Z,1.13
2018-12-07T16:55:10.205Z,0.80
2018-12-07T16:57:37.967Z,0.90
2018-12-07T17:00:07.554Z,1.10
2018-12-07T17:02:35.328Z,1.00
2018-12-07T17:05:03.781Z,1.37
2018-12-07T17:07:31.305Z,0.80
2018-12-07T17:09:58.796Z,1.03
2018-12-07T17:12:26.464Z,0.90
2018-12-07T17:14:54.137Z,1.23
2018-12-07T17:17:21.723Z,2.10
2018-12-07T17:19:49.427Z,1.40
2018-12-07T17:22:17.019Z,1.60
2018-12-07T17:24:44.530Z,1.17
2018-12-07T17:27:12.191Z,1.07
2018-12-07T17:29:39.837Z,1.40
2018-12-07T17:32:07.586Z,1.70
2018-12-07T17:34:35.289Z,1.50
2018-12-07T17:37:02.925Z,1.13
2018-12-07T17:39:30.681Z,1.20
2018-12-07T17:41:58.360Z,1.50
2018-12-07T17:44:25.914Z,1.00
2018-12-07T17:46:53.796Z,1.00
2018-12-07T17:49:21.673Z,0.90
2018-12-07T17:51:49.694Z,1.40
2018-12-07T17:54:17.589Z,1.20
2018-12-07T17:56:45.405Z,1.17
2018-12-07T17:59:13.354Z,1.03
2018-12-07T18:01:40.977Z,1.33
2018-12-07T18:04:08.480Z,1.20
2018-12-07T18:06:36.008Z,1.40
2018-12-07T18:09:06.227Z,1.40
2018-12-07T18:11:33.883Z,1.00
2018-12-07T18:14:01.512Z,0.90
2018-12-07T18:16:29.151Z,0.77
2018-12-07T18:18:56.821Z,0.87
2018-12-07T18:21:24.474Z,0.60
2018-12-07T18:23:52.262Z,0.70
2018-12-07T18:26:20.042Z,0.73
2018-12-07T18:28:47.670Z,0.70
2018-12-07T18:31:15.637Z,0.70
2018-12-07T18:33:43.257Z,0.60
2018-12-07T18:39:21.107Z,0.70
2018-12-07T18:41:48.678Z,0.50
2018-12-07T18:44:22.484Z,0.70
2018-12-07T18:46:50.111Z,0.60
2018-12-07T18:49:28.308Z,0.70
2018-12-07T18:52:08.565Z,0.90
2018-12-07T18:54:36.104Z,0.50
2018-12-07T18:57:12.267Z,0.60
2018-12-07T18:59:50.111Z,0.70
2018-12-07T19:02:25.140Z,0.53
2018-12-07T19:04:59.395Z,0.80
2018-12-07T19:07:36.638Z,0.90
2018-12-07T19:10:08.269Z,1.10
2018-12-07T19:12:42.184Z,0.83
2018-12-07T19:15:15.890Z,0.70
2018-12-07T19:20:47.577Z,0.47
2018-12-07T19:23:15.358Z,1.03
2018-12-07T19:25:56.275Z,0.50
2018-12-07T19:28:30.829Z,0.70
2018-12-07T19:31:04.746Z,1.10
2018-12-07T19:36:31.515Z,0.50
2018-12-07T19:39:09.137Z,0.60
2018-12-07T19:41:42.607Z,0.70
2018-12-07T19:44:16.541Z,0.60
2018-12-07T19:46:51.078Z,0.83
2018-12-07T19:52:12.195Z,0.90
2018-12-07T19:54:39.890Z,0.90
2018-12-07T20:00:15.940Z,0.90
2018-12-07T20:02:43.744Z,1.27
2018-12-07T20:05:11.432Z,1.03
2018-12-07T20:10:48.192Z,1.10
2018-12-07T20:13:16.015Z,1.47
2018-12-07T20:15:43.662Z,1.30
2018-12-07T20:18:11.396Z,1.47
2018-12-07T20:20:39.126Z,1.50
2018-12-07T20:23:06.735Z,0.80
2018-12-07T20:25:34.289Z,1.17
2018-12-07T20:28:01.912Z,1.17
2018-12-07T20:30:29.445Z,0.80
2018-12-07T20:32:57.239Z,0.97
2018-12-07T20:35:24.947Z,1.00
2018-12-07T20:37:52.860Z,1.43
2018-12-07T20:40:20.617Z,1.00
2018-12-07T20:42:48.269Z,1.33
2018-12-07T20:45:16.099Z,1.40
2018-12-07T20:47:43.757Z,0.97
2018-12-07T20:50:11.439Z,1.17
2018-12-07T20:52:39.234Z,1.20
2018-12-07T20:55:10.656Z,1.67
2018-12-07T21:00:43.609Z,2.27
2018-12-07T21:03:11.434Z,2.07
2018-12-07T21:05:56.238Z,2.20
2018-12-07T21:08:37.570Z,1.27
2018-12-07T21:14:28.903Z,1.47
2018-12-07T21:25:54.553Z,1.97
2018-12-07T21:28:22.499Z,1.70
2018-12-07T21:30:50.153Z,1.67
2018-12-07T21:33:18.336Z,1.83
2018-12-07T21:35:54.748Z,1.47
2018-12-07T21:38:22.280Z,1.80
2018-12-07T21:40:49.796Z,1.40
2018-12-07T21:43:17.546Z,1.47
2018-12-07T21:45:45.148Z,1.63
2018-12-07T21:48:22.080Z,1.87
2018-12-07T21:50:57.968Z,1.47
2018-12-07T21:53:25.769Z,1.30
2018-12-07T21:55:53.621Z,9.70
2018-12-07T21:58:21.645Z,3.13
2018-12-07T22:00:49.355Z,1.83
2018-12-07T22:03:17.020Z,1.53
2018-12-07T22:05:44.965Z,1.50
2018-12-07T22:08:29.504Z,1.77
2018-12-07T22:14:15.617Z,1.63
2018-12-07T22:19:55.558Z,1.43
2018-12-07T22:22:40.392Z,1.10
2018-12-07T22:25:25.384Z,0.90
2018-12-07T22:28:09.738Z,0.80
2018-12-07T22:30:53.881Z,0.80
2018-12-07T22:33:38.299Z,0.90
2018-12-07T22:36:22.557Z,1.33
2018-12-07T22:39:05.152Z,1.40
2018-12-07T22:44:52.592Z,1.10
2018-12-07T22:47:39.934Z,1.03
2018-12-07T22:50:07.593Z,1.33
2018-12-07T22:52:35.237Z,1.10
2018-12-07T22:55:02.741Z,1.23
2018-12-07T22:57:30.256Z,1.40
2018-12-07T22:59:57.751Z,1.00
2018-12-07T23:02:25.294Z,1.50
2018-12-07T23:04:52.790Z,1.30
2018-12-07T23:07:20.314Z,1.80
2018-12-07T23:09:47.817Z,2.07
2018-12-07T23:12:15.346Z,1.60
2018-12-07T23:14:42.856Z,2.03
2018-12-07T23:17:10.380Z,1.90
2018-12-07T23:19:37.881Z,2.03
2018-12-07T23:22:05.402Z,1.67
2018-12-07T23:24:32.904Z,1.10
2018-12-07T23:27:00.421Z,1.23
2018-12-07T23:29:27.928Z,1.13
2018-12-07T23:31:55.450Z,0.93
2018-12-07T23:34:22.941Z,0.97
2018-12-07T23:36:50.468Z,1.27
2018-12-07T23:39:18.089Z,1.27
2018-12-07T23:41:45.583Z,1.00
2018-12-07T23:44:13.104Z,1.37
2018-12-07T23:46:40.743Z,0.97
2018-12-07T23:49:08.263Z,1.10
2018-12-07T23:51:35.829Z,1.30
2018-12-07T23:54:03.428Z,1.60
2018-12-07T23:56:31.047Z,1.47
2018-12-07T23:58:58.743Z,1.47
